createdAt,value
2018-12-01T00:00:58.866Z,45.61
2018-12-01T00:01:59.896Z,45.61
2018-12-01T00:02:58.825Z,45.62
2018-12-01T00:03:59.068Z,45.62
2018-12-01T00:04:58.869Z,45.62
2018-12-01T00:05:59.242Z,45.64
2018-12-01T00:06:59.177Z,45.66
2018-12-01T00:07:58.997Z,45.66
2018-12-01T00:08:58.945Z,45.64
2018-12-01T00:09:58.901Z,45.66
2018-12-01T00:10:59.476Z,45.67
2018-12-01T00:11:58.831Z,45.67
2018-12-01T00:12:58.976Z,45.69
2018-12-01T00:13:58.818Z,45.71
2018-12-01T00:14:58.965Z,45.72
2018-12-01T00:15:59.068Z,45.68
2018-12-01T00:16:58.847Z,45.73
2018-12-01T00:17:58.966Z,45.71
2018-12-01T00:18:58.881Z,45.68
2018-12-01T00:19:58.936Z,45.71
2018-12-01T00:20:58.868Z,45.7
2018-12-01T00:21:58.959Z,45.7
2018-12-01T00:22:58.892Z,45.71
2018-12-01T00:23:58.827Z,45.73
2018-12-01T00:24:58.877Z,45.75
2018-12-01T00:25:59.282Z,45.75
2018-12-01T00:26:59.069Z,45.71
2018-12-01T00:27:58.822Z,45.73
2018-12-01T00:28:58.975Z,45.74
2018-12-01T00:29:58.818Z,45.75
2018-12-01T00:30:58.873Z,45.72
2018-12-01T00:31:58.881Z,45.75
2018-12-01T00:32:58.886Z,45.74
2018-12-01T00:33:58.969Z,45.72
2018-12-01T00:34:58.943Z,45.78
2018-12-01T00:35:58.943Z,45.77
2018-12-01T00:36:58.842Z,45.77
2018-12-01T00:37:59.292Z,45.77
2018-12-01T00:38:59.029Z,45.8
2018-12-01T00:39:58.912Z,45.75
2018-12-01T00:40:59.067Z,45.77
2018-12-01T00:41:58.788Z,45.79
2018-12-01T00:42:59.012Z,45.82
2018-12-01T00:43:59.402Z,45.81
2018-12-01T00:44:59.514Z,45.79
2018-12-01T00:45:58.880Z,45.8
2018-12-01T00:46:59.403Z,45.78
2018-12-01T00:47:58.866Z,45.78
2018-12-01T00:48:59.226Z,45.82
2018-12-01T00:49:58.852Z,45.82
2018-12-01T00:50:59.387Z,45.8
2018-12-01T00:51:59.298Z,45.79
2018-12-01T00:52:59.210Z,45.82
2018-12-01T00:53:58.948Z,45.82
2018-12-01T00:54:59.205Z,45.82
2018-12-01T00:55:59.802Z,45.83
2018-12-01T00:56:58.839Z,45.84
2018-12-01T00:57:59.193Z,45.83
2018-12-01T00:58:58.902Z,45.87
2018-12-01T00:59:59.092Z,45.82
2018-12-01T01:00:59.274Z,45.85
2018-12-01T01:01:59.412Z,45.85
2018-12-01T01:02:58.865Z,45.81
2018-12-01T01:03:58.882Z,45.81
2018-12-01T01:04:58.964Z,45.86
2018-12-01T01:05:59.472Z,45.85
2018-12-01T01:06:59.228Z,45.84
2018-12-01T01:07:58.859Z,45.85
2018-12-01T01:08:59.096Z,45.87
2018-12-01T01:09:59.204Z,45.87
2018-12-01T01:10:59.222Z,45.9
2018-12-01T01:11:59.022Z,45.82
2018-12-01T01:12:58.903Z,45.9
2018-12-01T01:13:58.999Z,45.85
2018-12-01T01:14:59.073Z,45.86
2018-12-01T01:15:59.111Z,45.91
2018-12-01T01:16:59.284Z,45.88
2018-12-01T01:17:58.869Z,45.88
2018-12-01T01:18:58.959Z,45.88
2018-12-01T01:19:58.832Z,45.87
2018-12-01T01:20:58.998Z,45.87
2018-12-01T01:21:58.884Z,45.9
2018-12-01T01:22:59.074Z,45.91
2018-12-01T01:23:58.944Z,45.91
2018-12-01T01:24:58.904Z,45.88
2018-12-01T01:25:58.970Z,45.9
2018-12-01T01:26:59.305Z,45.88
2018-12-01T01:27:59.269Z,45.91
2018-12-01T01:28:59.021Z,45.89
2018-12-01T01:29:58.831Z,45.88
2018-12-01T01:30:59.158Z,45.93
2018-12-01T01:31:59.046Z,45.93
2018-12-01T01:32:59.027Z,45.92
2018-12-01T01:33:59.043Z,45.9
2018-12-01T01:34:59.002Z,45.91
2018-12-01T01:35:59.197Z,45.9
2018-12-01T01:36:58.996Z,45.88
2018-12-01T01:38:00.431Z,45.91
2018-12-01T01:38:58.981Z,45.89
2018-12-01T01:39:58.900Z,45.91
2018-12-01T01:40:59.096Z,45.88
2018-12-01T01:41:59.079Z,45.89
2018-12-01T01:42:59.350Z,45.92
2018-12-01T01:43:58.970Z,45.92
2018-12-01T01:44:58.861Z,45.91
2018-12-01T01:45:59.194Z,45.96
2018-12-01T01:46:58.742Z,45.93
2018-12-01T01:47:59.094Z,45.93
2018-12-01T01:48:59.298Z,45.92
2018-12-01T01:49:58.910Z,45.94
2018-12-01T01:50:58.810Z,45.91
2018-12-01T01:51:58.964Z,45.95
2018-12-01T01:52:58.901Z,45.97
2018-12-01T01:53:58.762Z,45.93
2018-12-01T01:54:58.914Z,45.99
2018-12-01T01:55:58.824Z,45.95
2018-12-01T01:56:58.900Z,45.95
2018-12-01T01:57:58.753Z,45.94
2018-12-01T01:58:58.938Z,45.94
2018-12-01T01:59:58.670Z,45.95
2018-12-01T02:00:58.882Z,46.01
2018-12-01T02:01:58.691Z,45.94
2018-12-01T02:02:58.945Z,45.94
2018-12-01T02:03:59.053Z,45.96
2018-12-01T02:04:58.861Z,45.97
2018-12-01T02:05:58.946Z,45.95
2018-12-01T02:06:58.880Z,45.96
2018-12-01T02:07:58.892Z,45.95
2018-12-01T02:08:58.704Z,45.97
2018-12-01T02:09:58.953Z,45.96
2018-12-01T02:10:58.770Z,45.95
2018-12-01T02:11:58.811Z,45.97
2018-12-01T02:12:59.048Z,45.99
2018-12-01T02:13:59.069Z,45.95
2018-12-01T02:14:58.921Z,45.98
2018-12-01T02:15:58.955Z,45.97
2018-12-01T02:16:59.359Z,45.96
2018-12-01T02:17:58.829Z,45.96
2018-12-01T02:18:58.817Z,45.95
2018-12-01T02:19:58.968Z,45.97
2018-12-01T02:20:58.821Z,45.97
2018-12-01T02:21:59.011Z,45.95
2018-12-01T02:22:58.954Z,45.96
2018-12-01T02:23:58.883Z,45.94
2018-12-01T02:24:59.667Z,45.94
2018-12-01T02:25:59.553Z,45.97
2018-12-01T02:26:59.144Z,45.95
2018-12-01T02:27:59.806Z,46
2018-12-01T02:28:58.797Z,45.98
2018-12-01T02:29:58.772Z,45.95
2018-12-01T02:30:59.396Z,45.97
2018-12-01T02:31:59.031Z,46
2018-12-01T02:32:58.915Z,46
2018-12-01T02:33:58.727Z,46
2018-12-01T02:34:58.909Z,46.01
2018-12-01T02:35:58.755Z,46.01
2018-12-01T02:36:59.233Z,46.02
2018-12-01T02:37:59.108Z,46
2018-12-01T02:38:59.180Z,46.01
2018-12-01T02:39:59.284Z,46.03
2018-12-01T02:40:59.175Z,46.01
2018-12-01T02:41:59.216Z,45.99
2018-12-01T02:42:58.773Z,46.01
2018-12-01T02:43:58.775Z,45.99
2018-12-01T02:44:59.031Z,46.01
2018-12-01T02:45:59.188Z,45.99
2018-12-01T02:46:58.962Z,46.01
2018-12-01T02:47:58.732Z,46
2018-12-01T02:48:58.714Z,46.01
2018-12-01T02:49:59.457Z,45.98
2018-12-01T02:50:58.910Z,45.96
2018-12-01T02:51:59.052Z,46
2018-12-01T02:52:58.896Z,46
2018-12-01T02:53:58.982Z,46.01
2018-12-01T02:54:58.879Z,46.02
2018-12-01T02:55:58.860Z,46.03
2018-12-01T02:56:58.818Z,46.06
2018-12-01T02:57:59.103Z,46.02
2018-12-01T02:58:59.185Z,46
2018-12-01T02:59:58.872Z,46.03
2018-12-01T03:00:58.916Z,46
2018-12-01T03:01:58.927Z,46.04
2018-12-01T03:02:59.256Z,46
2018-12-01T03:03:58.788Z,45.98
2018-12-01T03:04:58.950Z,46.02
2018-12-01T03:05:58.655Z,46
2018-12-01T03:06:58.598Z,46.03
2018-12-01T03:07:58.843Z,46
2018-12-01T03:08:58.781Z,46.03
2018-12-01T03:09:59.101Z,46
2018-12-01T03:10:58.813Z,46.03
2018-12-01T03:11:59.262Z,46.02
2018-12-01T03:12:58.897Z,46.02
2018-12-01T03:13:58.978Z,46.01
2018-12-01T03:14:59.030Z,46.03
2018-12-01T03:15:59.043Z,46.07
2018-12-01T03:16:59.172Z,46.02
2018-12-01T03:17:59.104Z,46.05
2018-12-01T03:18:59.038Z,46.02
2018-12-01T03:19:58.749Z,46.03
2018-12-01T03:20:58.990Z,46.03
2018-12-01T03:21:58.794Z,46.03
2018-12-01T03:22:58.818Z,46.05
2018-12-01T03:23:58.949Z,46.04
2018-12-01T03:24:58.719Z,46.03
2018-12-01T03:25:58.746Z,46.05
2018-12-01T03:26:59.490Z,46.04
2018-12-01T03:27:58.939Z,46.07
2018-12-01T03:28:59.067Z,46.04
2018-12-01T03:29:58.859Z,46.08
2018-12-01T03:30:58.734Z,46.04
2018-12-01T03:31:59.243Z,46.04
2018-12-01T03:32:58.747Z,46.09
2018-12-01T03:33:58.700Z,46.06
2018-12-01T03:34:58.948Z,46.06
2018-12-01T03:35:58.791Z,46.06
2018-12-01T03:36:58.892Z,46.04
2018-12-01T03:37:58.731Z,46.06
2018-12-01T03:38:58.888Z,46.04
2018-12-01T03:39:58.792Z,46.04
2018-12-01T03:40:58.949Z,46.04
2018-12-01T03:41:58.802Z,46.02
2018-12-01T03:42:58.740Z,46.05
2018-12-01T03:43:58.769Z,46.04
2018-12-01T03:44:58.842Z,46.03
2018-12-01T03:45:59.088Z,46.09
2018-12-01T03:46:58.919Z,46.09
2018-12-01T03:47:58.790Z,46.05
2018-12-01T03:48:58.730Z,46.05
2018-12-01T03:49:58.962Z,46.08
2018-12-01T03:50:58.752Z,46.07
2018-12-01T03:51:58.693Z,46.12
2018-12-01T03:52:58.774Z,46.07
2018-12-01T03:53:58.896Z,46.07
2018-12-01T03:54:59.016Z,46.09
2018-12-01T03:55:58.779Z,46.09
2018-12-01T03:56:59.113Z,46.06
2018-12-01T03:57:58.751Z,46.05
2018-12-01T03:58:58.924Z,46.1
2018-12-01T03:59:58.634Z,46.08
2018-12-01T04:00:58.711Z,46.08
2018-12-01T04:01:59.268Z,46.09
2018-12-01T04:02:58.753Z,46.04
2018-12-01T04:03:59.040Z,46.08
2018-12-01T04:04:58.754Z,46.05
2018-12-01T04:05:59.262Z,46.06
2018-12-01T04:06:58.968Z,46.09
2018-12-01T04:07:58.882Z,46.1
2018-12-01T04:08:58.855Z,46.09
2018-12-01T04:09:58.943Z,46.08
2018-12-01T04:10:59.092Z,46.1
2018-12-01T04:11:58.913Z,46.1
2018-12-01T04:12:58.999Z,46.11
2018-12-01T04:13:59.026Z,46.1
2018-12-01T04:14:58.843Z,46.12
2018-12-01T04:15:59.122Z,46.11
2018-12-01T04:16:59.327Z,46.08
2018-12-01T04:17:58.931Z,46.11
2018-12-01T04:18:59.136Z,46.1
2018-12-01T04:19:58.748Z,46.1
2018-12-01T04:20:58.748Z,46.12
2018-12-01T04:21:59.012Z,46.11
2018-12-01T04:22:58.779Z,46.11
2018-12-01T04:23:59.074Z,46.12
2018-12-01T04:24:58.666Z,46.07
2018-12-01T04:25:58.976Z,46.11
2018-12-01T04:26:58.900Z,46.1
2018-12-01T04:27:58.736Z,46.1
2018-12-01T04:28:58.941Z,46.09
2018-12-01T04:29:59.243Z,46.1
2018-12-01T04:30:58.879Z,46.12
2018-12-01T04:31:58.904Z,46.11
2018-12-01T04:32:58.891Z,46.11
2018-12-01T04:33:58.646Z,46.09
2018-12-01T04:34:58.856Z,46.08
2018-12-01T04:35:58.917Z,46.12
2018-12-01T04:36:58.797Z,46.07
2018-12-01T04:37:59.177Z,46.1
2018-12-01T04:38:58.609Z,46.08
2018-12-01T04:39:59.204Z,46.09
2018-12-01T04:40:58.671Z,46.1
2018-12-01T04:41:59.041Z,46.1
2018-12-01T04:42:58.785Z,46.09
2018-12-01T04:43:58.847Z,46.09
2018-12-01T04:44:59.335Z,46.08
2018-12-01T04:45:59.322Z,46.09
2018-12-01T04:46:59.818Z,46.08
2018-12-01T04:47:58.683Z,46.1
2018-12-01T04:48:58.806Z,46.11
2018-12-01T04:49:58.777Z,46.09
2018-12-01T04:50:59.072Z,46.07
2018-12-01T04:51:58.637Z,46.05
2018-12-01T04:52:58.809Z,46.05
2018-12-01T04:53:58.947Z,46.05
2018-12-01T04:54:58.829Z,46.03
2018-12-01T04:55:58.932Z,45.97
2018-12-01T04:56:58.830Z,45.97
2018-12-01T04:57:59.226Z,45.98
2018-12-01T04:58:59.037Z,45.96
2018-12-01T04:59:59.031Z,45.92
2018-12-01T05:00:58.748Z,45.97
2018-12-01T05:01:58.914Z,45.95
2018-12-01T05:02:59.031Z,45.93
2018-12-01T05:03:59.253Z,45.93
2018-12-01T05:04:58.912Z,45.92
2018-12-01T05:05:58.649Z,45.87
2018-12-01T05:06:58.803Z,45.91
2018-12-01T05:07:58.820Z,45.9
2018-12-01T05:08:58.951Z,45.9
2018-12-01T05:09:58.850Z,45.87
2018-12-01T05:10:58.739Z,45.9
2018-12-01T05:11:58.895Z,45.83
2018-12-01T05:12:58.790Z,45.81
2018-12-01T05:13:58.815Z,45.81
2018-12-01T05:14:58.698Z,45.82
2018-12-01T05:15:58.943Z,45.77
2018-12-01T05:16:58.762Z,45.81
2018-12-01T05:17:58.838Z,45.81
2018-12-01T05:18:58.663Z,45.74
2018-12-01T05:19:58.967Z,45.82
2018-12-01T05:20:58.846Z,45.75
2018-12-01T05:21:58.800Z,45.73
2018-12-01T05:22:58.896Z,45.71
2018-12-01T05:23:58.755Z,45.79
2018-12-01T05:24:58.861Z,45.74
2018-12-01T05:25:58.626Z,45.76
2018-12-01T05:26:58.746Z,45.74
2018-12-01T05:27:59.026Z,45.78
2018-12-01T05:28:58.823Z,45.72
2018-12-01T05:29:59.110Z,45.67
2018-12-01T05:30:59.052Z,45.75
2018-12-01T05:31:58.933Z,45.76
2018-12-01T05:32:58.759Z,45.67
2018-12-01T05:33:58.837Z,45.75
2018-12-01T05:34:58.689Z,45.78
2018-12-01T05:35:58.880Z,45.77
2018-12-01T05:36:59.284Z,45.74
2018-12-01T05:37:58.935Z,45.75
2018-12-01T05:38:59.034Z,45.78
2018-12-01T05:39:58.816Z,45.75
2018-12-01T05:40:59.139Z,45.7
2018-12-01T05:41:58.945Z,45.74
2018-12-01T05:42:59.158Z,45.72
2018-12-01T05:43:58.910Z,45.74
2018-12-01T05:44:58.774Z,45.73
2018-12-01T05:45:58.722Z,45.76
2018-12-01T05:46:58.899Z,45.75
2018-12-01T05:47:59.182Z,45.77
2018-12-01T05:48:58.997Z,45.71
2018-12-01T05:49:58.825Z,45.8
2018-12-01T05:50:59.403Z,45.75
2018-12-01T05:51:59.004Z,45.79
2018-12-01T05:53:00.181Z,45.82
2018-12-01T05:53:58.729Z,45.78
2018-12-01T05:54:58.613Z,45.8
2018-12-01T05:55:58.875Z,45.76
2018-12-01T05:56:59.008Z,45.75
2018-12-01T05:57:58.836Z,45.77
2018-12-01T05:58:58.815Z,45.88
2018-12-01T05:59:58.869Z,45.79
2018-12-01T06:00:59.168Z,45.79
2018-12-01T06:01:58.770Z,45.78
2018-12-01T06:02:58.880Z,45.8
2018-12-01T06:03:58.671Z,45.85
2018-12-01T06:04:58.701Z,45.78
2018-12-01T06:05:59.124Z,45.8
2018-12-01T06:06:58.773Z,45.76
2018-12-01T06:07:58.804Z,45.83
2018-12-01T06:08:58.656Z,45.72
2018-12-01T06:09:58.831Z,45.76
2018-12-01T06:10:59.364Z,45.8
2018-12-01T06:11:59.305Z,45.84
2018-12-01T06:12:58.747Z,45.79
2018-12-01T06:13:58.749Z,45.75
2018-12-01T06:14:58.688Z,45.8
2018-12-01T06:15:58.832Z,45.77
2018-12-01T06:16:59.118Z,45.76
2018-12-01T06:17:58.772Z,45.78
2018-12-01T06:18:59.197Z,45.78
2018-12-01T06:19:58.650Z,45.77
2018-12-01T06:20:58.801Z,45.81
2018-12-01T06:21:58.641Z,45.83
2018-12-01T06:22:59.001Z,45.79
2018-12-01T06:23:59.268Z,45.77
2018-12-01T06:24:59.199Z,45.84
2018-12-01T06:25:58.921Z,45.76
2018-12-01T06:26:58.804Z,45.78
2018-12-01T06:27:59.054Z,45.82
2018-12-01T06:28:59.423Z,45.75
2018-12-01T06:29:58.735Z,45.77
2018-12-01T06:30:58.729Z,45.69
2018-12-01T06:31:58.954Z,45.78
2018-12-01T06:32:59.169Z,45.78
2018-12-01T06:33:58.704Z,45.74
2018-12-01T06:34:58.856Z,45.75
2018-12-01T06:35:58.637Z,45.75
2018-12-01T06:36:58.731Z,45.77
2018-12-01T06:37:58.792Z,45.75
2018-12-01T06:39:00.052Z,45.75
2018-12-01T06:39:58.924Z,45.77
2018-12-01T06:40:59.046Z,45.77
2018-12-01T06:41:58.579Z,45.73
2018-12-01T06:42:59.193Z,45.74
2018-12-01T06:43:58.829Z,45.75
2018-12-01T06:44:58.718Z,45.77
2018-12-01T06:45:58.835Z,45.73
2018-12-01T06:46:58.641Z,45.75
2018-12-01T06:47:58.861Z,45.73
2018-12-01T06:48:58.690Z,45.73
2018-12-01T06:49:58.849Z,45.67
2018-12-01T06:50:58.837Z,45.72
2018-12-01T06:51:58.814Z,45.73
2018-12-01T06:52:59.634Z,45.74
2018-12-01T06:53:58.768Z,45.68
2018-12-01T06:54:58.753Z,45.71
2018-12-01T06:55:58.617Z,45.72
2018-12-01T06:56:59.030Z,45.7
2018-12-01T06:57:58.632Z,45.69
2018-12-01T06:58:58.738Z,45.68
2018-12-01T06:59:58.676Z,45.69
2018-12-01T07:00:58.898Z,45.7
2018-12-01T07:01:58.760Z,45.66
2018-12-01T07:02:58.621Z,45.68
2018-12-01T07:03:58.892Z,45.65
2018-12-01T07:04:59.777Z,45.68
2018-12-01T07:05:58.840Z,45.65
2018-12-01T07:06:58.613Z,45.67
2018-12-01T07:07:59.028Z,45.68
2018-12-01T07:08:59.147Z,45.66
2018-12-01T07:09:58.725Z,45.64
2018-12-01T07:10:58.875Z,45.63
2018-12-01T07:11:58.997Z,45.58
2018-12-01T07:12:59.169Z,45.65
2018-12-01T07:13:58.721Z,45.62
2018-12-01T07:14:58.774Z,45.62
2018-12-01T07:15:58.877Z,45.63
2018-12-01T07:16:58.876Z,45.61
2018-12-01T07:17:59.203Z,45.59
2018-12-01T07:18:58.713Z,45.59
2018-12-01T07:19:59.046Z,45.62
2018-12-01T07:20:58.634Z,45.62
2018-12-01T07:21:59.025Z,45.61
2018-12-01T07:22:59.087Z,45.61
2018-12-01T07:23:58.863Z,45.6
2018-12-01T07:24:58.943Z,45.58
2018-12-01T07:25:58.722Z,45.61
2018-12-01T07:26:58.696Z,45.58
2018-12-01T07:27:58.842Z,45.58
2018-12-01T07:28:58.895Z,45.6
2018-12-01T07:29:58.762Z,45.57
2018-12-01T07:30:58.767Z,45.53
2018-12-01T07:31:58.979Z,45.6
2018-12-01T07:32:59.088Z,45.57
2018-12-01T07:33:58.698Z,45.54
2018-12-01T07:34:58.691Z,45.55
2018-12-01T07:35:58.570Z,45.55
2018-12-01T07:36:58.759Z,45.54
2018-12-01T07:37:58.794Z,45.55
2018-12-01T07:38:58.815Z,45.54
2018-12-01T07:39:58.820Z,45.53
2018-12-01T07:40:58.648Z,45.54
2018-12-01T07:41:58.719Z,45.5
2018-12-01T07:42:58.610Z,45.51
2018-12-01T07:43:58.786Z,45.53
2018-12-01T07:44:58.704Z,45.52
2018-12-01T07:45:58.839Z,45.51
2018-12-01T07:46:58.900Z,45.48
2018-12-01T07:47:58.746Z,45.48
2018-12-01T07:48:58.938Z,45.49
2018-12-01T07:49:59.068Z,45.48
2018-12-01T07:50:58.799Z,45.47
2018-12-01T07:51:58.702Z,45.48
2018-12-01T07:52:58.685Z,45.5
2018-12-01T07:53:59.059Z,45.44
2018-12-01T07:54:58.782Z,45.46
2018-12-01T07:55:58.816Z,45.45
2018-12-01T07:56:59.049Z,45.48
2018-12-01T07:57:59.268Z,45.46
2018-12-01T07:58:59.036Z,45.43
2018-12-01T07:59:58.993Z,45.46
2018-12-01T08:00:58.692Z,45.42
2018-12-01T08:01:59.141Z,45.44
2018-12-01T08:02:59.133Z,45.48
2018-12-01T08:03:59.006Z,45.42
2018-12-01T08:04:59.134Z,45.46
2018-12-01T08:05:58.957Z,45.43
2018-12-01T08:06:59.046Z,45.44
2018-12-01T08:07:58.967Z,45.45
2018-12-01T08:08:59.340Z,45.4
2018-12-01T08:09:58.621Z,45.47
2018-12-01T08:10:58.705Z,45.39
2018-12-01T08:11:58.767Z,45.41
2018-12-01T08:12:58.675Z,45.43
2018-12-01T08:13:58.811Z,45.45
2018-12-01T08:14:58.594Z,45.41
2018-12-01T08:15:59.124Z,45.43
2018-12-01T08:16:59.016Z,45.41
2018-12-01T08:17:58.770Z,45.44
2018-12-01T08:18:58.619Z,45.43
2018-12-01T08:19:58.769Z,45.39
2018-12-01T08:20:58.579Z,45.44
2018-12-01T08:21:58.719Z,45.37
2018-12-01T08:22:58.811Z,45.38
2018-12-01T08:23:58.822Z,45.37
2018-12-01T08:24:58.823Z,45.4
2018-12-01T08:25:58.574Z,45.39
2018-12-01T08:26:58.835Z,45.39
2018-12-01T08:27:58.627Z,45.37
2018-12-01T08:28:58.667Z,45.36
2018-12-01T08:29:58.609Z,45.36
2018-12-01T08:30:58.768Z,45.35
2018-12-01T08:31:58.775Z,45.33
2018-12-01T08:32:58.679Z,45.34
2018-12-01T08:33:58.787Z,45.38
2018-12-01T08:34:58.686Z,45.34
2018-12-01T08:35:58.672Z,45.34
2018-12-01T08:36:58.669Z,45.29
2018-12-01T08:37:58.878Z,45.34
2018-12-01T08:38:58.688Z,45.37
2018-12-01T08:39:58.635Z,45.34
2018-12-01T08:40:59.303Z,45.33
2018-12-01T08:41:58.658Z,45.31
2018-12-01T08:42:58.705Z,45.31
2018-12-01T08:43:58.717Z,45.32
2018-12-01T08:44:58.825Z,45.28
2018-12-01T08:45:58.781Z,45.3
2018-12-01T08:46:58.779Z,45.29
2018-12-01T08:47:58.528Z,45.28
2018-12-01T08:48:58.792Z,45.29
2018-12-01T08:49:58.901Z,45.33
2018-12-01T08:50:58.773Z,45.28
2018-12-01T08:51:58.781Z,45.31
2018-12-01T08:52:58.892Z,45.3
2018-12-01T08:53:58.765Z,45.31
2018-12-01T08:54:58.548Z,45.28
2018-12-01T08:55:58.728Z,45.31
2018-12-01T08:56:59.299Z,45.29
2018-12-01T08:57:58.605Z,45.29
2018-12-01T08:58:58.884Z,45.28
2018-12-01T08:59:58.591Z,45.3
2018-12-01T09:00:58.711Z,45.27
2018-12-01T09:01:59.225Z,45.28
2018-12-01T09:02:58.788Z,45.27
2018-12-01T09:03:58.878Z,45.3
2018-12-01T09:04:58.643Z,45.27
2018-12-01T09:05:59.172Z,45.28
2018-12-01T09:06:58.589Z,45.27
2018-12-01T09:07:58.761Z,45.29
2018-12-01T09:08:58.975Z,45.37
2018-12-01T09:09:58.718Z,45.38
2018-12-01T09:10:58.944Z,45.37
2018-12-01T09:11:59.071Z,45.41
2018-12-01T09:13:01.980Z,45.68
2018-12-01T09:13:58.668Z,45.55
2018-12-01T09:14:59.144Z,45.44
2018-12-01T09:15:58.878Z,45.64
2018-12-01T09:16:58.754Z,45.63
2018-12-01T09:17:58.696Z,45.68
2018-12-01T09:18:58.722Z,45.74
2018-12-01T09:19:59.107Z,45.72
2018-12-01T09:20:58.983Z,45.87
2018-12-01T09:21:58.728Z,45.83
2018-12-01T09:22:58.860Z,45.78
2018-12-01T09:23:58.726Z,45.75
2018-12-01T09:24:58.995Z,45.5
2018-12-01T09:25:58.630Z,45.38
2018-12-01T09:26:58.820Z,45.25
2018-12-01T09:27:58.822Z,45.22
2018-12-01T09:28:58.917Z,45.19
2018-12-01T09:29:58.897Z,45.15
2018-12-01T09:30:58.539Z,45.16
2018-12-01T09:31:58.643Z,45.17
2018-12-01T09:32:58.715Z,45.16
2018-12-01T09:33:58.964Z,45.13
2018-12-01T09:34:59.014Z,45.16
2018-12-01T09:35:58.797Z,45.09
2018-12-01T09:36:58.892Z,45.14
2018-12-01T09:37:58.832Z,45.09
2018-12-01T09:38:58.845Z,45.12
2018-12-01T09:39:58.555Z,45.09
2018-12-01T09:40:58.490Z,45.1
2018-12-01T09:41:58.616Z,45.1
2018-12-01T09:42:58.893Z,45.1
2018-12-01T09:43:58.621Z,45.09
2018-12-01T09:44:58.774Z,45.08
2018-12-01T09:45:58.653Z,45.09
2018-12-01T09:46:59.030Z,45.11
2018-12-01T09:47:58.704Z,45.1
2018-12-01T09:48:59.004Z,45.06
2018-12-01T09:49:58.759Z,45.07
2018-12-01T09:50:58.869Z,45.11
2018-12-01T09:51:58.828Z,45.09
2018-12-01T09:52:58.647Z,45.25
2018-12-01T09:53:58.647Z,45.02
2018-12-01T09:54:58.587Z,45.01
2018-12-01T09:55:59.202Z,45.11
2018-12-01T09:56:58.562Z,45.16
2018-12-01T09:57:58.588Z,45.2
2018-12-01T09:58:58.751Z,45.19
2018-12-01T09:59:58.675Z,45.25
2018-12-01T10:00:58.669Z,45.25
2018-12-01T10:01:58.702Z,45.27
2018-12-01T10:02:58.727Z,45.24
2018-12-01T10:03:58.560Z,45.31
2018-12-01T10:04:58.711Z,45.32
2018-12-01T10:05:58.905Z,45.28
2018-12-01T10:06:58.550Z,45.28
2018-12-01T10:07:58.845Z,45.29
2018-12-01T10:08:58.632Z,45.26
2018-12-01T10:09:58.741Z,45.31
2018-12-01T10:10:58.629Z,45.28
2018-12-01T10:11:58.592Z,45.29
2018-12-01T10:12:58.669Z,45.24
2018-12-01T10:13:58.611Z,45.23
2018-12-01T10:14:58.771Z,45.27
2018-12-01T10:15:58.681Z,45.28
2018-12-01T10:16:59.664Z,45.27
2018-12-01T10:17:59.002Z,45.29
2018-12-01T10:18:58.548Z,45.31
2018-12-01T10:19:58.759Z,45.25
2018-12-01T10:20:58.969Z,45.26
2018-12-01T10:21:59.091Z,45.3
2018-12-01T10:22:58.951Z,45.32
2018-12-01T10:23:58.992Z,45.26
2018-12-01T10:24:59.556Z,45.26
2018-12-01T10:25:58.913Z,45.23
2018-12-01T10:26:58.907Z,45.22
2018-12-01T10:27:58.815Z,45.23
2018-12-01T10:28:59.624Z,45.3
2018-12-01T10:29:58.553Z,45.23
2018-12-01T10:30:58.958Z,45.22
2018-12-01T10:31:58.696Z,45.29
2018-12-01T10:32:59.013Z,45.23
2018-12-01T10:33:58.773Z,45.27
2018-12-01T10:34:58.719Z,45.24
2018-12-01T10:35:58.605Z,45.19
2018-12-01T10:36:58.832Z,45.27
2018-12-01T10:37:58.745Z,45.23
2018-12-01T10:39:03.778Z,45.21
2018-12-01T10:39:59.144Z,45.27
2018-12-01T10:40:58.700Z,45.24
2018-12-01T10:42:03.821Z,45.23
2018-12-01T10:42:58.850Z,45.22
2018-12-01T10:43:58.764Z,45.21
2018-12-01T10:44:58.935Z,45.21
2018-12-01T10:45:58.745Z,45.26
2018-12-01T10:46:58.683Z,45.21
2018-12-01T10:47:58.963Z,45.2
2018-12-01T10:48:58.721Z,45.21
2018-12-01T10:49:58.526Z,45.23
2018-12-01T10:50:58.544Z,45.23
2018-12-01T10:51:59.030Z,45.18
2018-12-01T10:52:58.746Z,45.2
2018-12-01T10:53:59.028Z,45.2
2018-12-01T10:54:58.502Z,45.23
2018-12-01T10:55:58.717Z,45.21
2018-12-01T10:56:58.923Z,45.21
2018-12-01T10:57:58.712Z,45.21
2018-12-01T10:58:59.064Z,45.23
2018-12-01T10:59:58.536Z,45.23
2018-12-01T11:00:58.552Z,45.28
2018-12-01T11:01:58.541Z,45.63
2018-12-01T11:02:59.118Z,45.78
2018-12-01T11:03:58.633Z,46.01
2018-12-01T11:04:58.778Z,45.89
2018-12-01T11:05:58.819Z,45.64
2018-12-01T11:06:59.045Z,45.67
2018-12-01T11:07:59.039Z,45.34
2018-12-01T11:08:58.864Z,45.73
2018-12-01T11:09:58.825Z,45.69
2018-12-01T11:10:58.704Z,45.77
2018-12-01T11:11:58.756Z,45.93
2018-12-01T11:12:58.502Z,45.79
2018-12-01T11:13:58.873Z,46
2018-12-01T11:14:58.968Z,46.12
2018-12-01T11:15:58.722Z,45.65
2018-12-01T11:16:58.937Z,45.61
2018-12-01T11:17:58.563Z,45.51
2018-12-01T11:18:59.255Z,45.57
2018-12-01T11:19:58.455Z,45.63
2018-12-01T11:20:59.085Z,45.74
2018-12-01T11:21:58.602Z,45.66
2018-12-01T11:22:59.272Z,45.89
2018-12-01T11:23:58.783Z,45.77
2018-12-01T11:24:58.612Z,46.19
2018-12-01T11:25:58.738Z,45.94
2018-12-01T11:26:59.040Z,45.8
2018-12-01T11:27:58.709Z,46.34
2018-12-01T11:28:59.074Z,46.19
2018-12-01T11:29:58.889Z,45.69
2018-12-01T11:30:58.890Z,45.97
2018-12-01T11:31:58.858Z,45.72
2018-12-01T11:32:58.577Z,46.03
2018-12-01T11:33:58.558Z,45.9
2018-12-01T11:34:58.910Z,45.61
2018-12-01T11:35:58.722Z,45.46
2018-12-01T11:36:58.653Z,45.37
2018-12-01T11:37:58.644Z,45.12
2018-12-01T11:38:58.615Z,45.04
2018-12-01T11:39:58.661Z,45.02
2018-12-01T11:40:58.631Z,44.97
2018-12-01T11:41:58.984Z,44.79
2018-12-01T11:42:58.791Z,44.8
2018-12-01T11:43:58.754Z,44.73
2018-12-01T11:44:58.989Z,45.41
2018-12-01T11:45:58.667Z,45.17
2018-12-01T11:46:58.623Z,44.96
2018-12-01T11:47:58.493Z,45.14
2018-12-01T11:48:58.608Z,44.94
2018-12-01T11:49:58.515Z,45.33
2018-12-01T11:50:58.660Z,45.25
2018-12-01T11:51:59.668Z,45.12
2018-12-01T11:52:58.568Z,45.23
2018-12-01T11:53:58.703Z,45.01
2018-12-01T11:54:58.745Z,45.18
2018-12-01T11:55:58.737Z,45.06
2018-12-01T11:56:58.577Z,45.09
2018-12-01T11:57:58.602Z,45.05
2018-12-01T11:58:58.483Z,45.13
2018-12-01T11:59:58.629Z,45.02
2018-12-01T12:00:58.637Z,45.11
2018-12-01T12:02:00.827Z,45.08
2018-12-01T12:02:59.020Z,45.08
2018-12-01T12:03:58.576Z,45.04
2018-12-01T12:04:58.593Z,45.11
2018-12-01T12:05:58.893Z,45.07
2018-12-01T12:06:58.871Z,45.09
2018-12-01T12:07:58.838Z,45.12
2018-12-01T12:08:58.754Z,45.07
2018-12-01T12:09:59.067Z,45.09
2018-12-01T12:10:58.610Z,45.05
2018-12-01T12:11:59.135Z,45.1
2018-12-01T12:12:58.601Z,45.08
2018-12-01T12:13:58.980Z,45.13
2018-12-01T12:14:59.393Z,45.11
2018-12-01T12:15:58.686Z,45.08
2018-12-01T12:16:58.549Z,45.08
2018-12-01T12:17:58.558Z,45.1
2018-12-01T12:18:58.699Z,45.1
2018-12-01T12:19:59.372Z,45.04
2018-12-01T12:20:58.731Z,45.05
2018-12-01T12:21:58.613Z,45.07
2018-12-01T12:22:58.947Z,45.12
2018-12-01T12:23:58.891Z,45.07
2018-12-01T12:24:58.642Z,45.09
2018-12-01T12:25:58.502Z,45.07
2018-12-01T12:26:59.493Z,45.09
2018-12-01T12:27:59.610Z,45.1
2018-12-01T12:28:58.791Z,45.1
2018-12-01T12:29:58.744Z,45.09
2018-12-01T12:30:58.775Z,45.09
2018-12-01T12:31:58.763Z,45.05
2018-12-01T12:32:59.029Z,45.04
2018-12-01T12:33:59.002Z,45.04
2018-12-01T12:34:58.683Z,45.06
2018-12-01T12:35:58.807Z,45.04
2018-12-01T12:36:58.462Z,45.08
2018-12-01T12:37:58.646Z,45.08
2018-12-01T12:38:58.685Z,45.06
2018-12-01T12:39:59.172Z,45.02
2018-12-01T12:40:58.881Z,45.09
2018-12-01T12:41:58.911Z,45.09
2018-12-01T12:42:59.280Z,45.05
2018-12-01T12:43:58.894Z,45.06
2018-12-01T12:44:58.400Z,45.05
2018-12-01T12:45:58.447Z,45.03
2018-12-01T12:46:58.741Z,45.17
2018-12-01T12:47:58.869Z,45.38
2018-12-01T12:48:58.906Z,45.54
2018-12-01T12:49:58.933Z,45.63
2018-12-01T12:50:59.004Z,45.57
2018-12-01T12:51:58.650Z,45.74
2018-12-01T12:52:58.827Z,45.74
2018-12-01T12:53:59.402Z,45.7
2018-12-01T12:54:58.750Z,45.69
2018-12-01T12:55:59.004Z,45.58
2018-12-01T12:56:58.782Z,45.53